sensor_id;sensor_type;location;lat;lon;timestamp;temperature;humidity
18240;DHT22;9244;50.828;4.718;2022-07-01T00:02:05;12.30;99.90
18240;DHT22;9244;50.828;4.718;2022-07-01T00:04:31;12.30;99.90
18240;DHT22;9244;50.828;4.718;2022-07-01T00:06:57;12.20;99.90
18240;DHT22;9244;50.828;4.718;2022-07-01T00:09:23;12.20;99.90
18240;DHT22;9244;50.828;4.718;2022-07-01T00:11:49;12.20;99.90
18240;DHT22;9244;50.828;4.718;2022-07-01T00:14:15;12.10;99.90
18240;DHT22;9244;50.828;4.718;2022-07-01T00:16:41;12.20;99.90
18240;DHT22;9244;50.828;4.718;2022-07-01T00:19:07;12.20;99.90
18240;DHT22;9244;50.828;4.718;2022-07-01T00:21:34;12.20;99.90
18240;DHT22;9244;50.828;4.718;2022-07-01T00:23:59;12.20;99.90
18240;DHT22;9244;50.828;4.718;2022-07-01T00:26:25;12.20;99.90
18240;DHT22;9244;50.828;4.718;2022-07-01T00:28:51;12.20;99.90
18240;DHT22;9244;50.828;4.718;2022-07-01T00:31:16;12.20;99.90
18240;DHT22;9244;50.828;4.718;2022-07-01T00:33:42;12.10;99.90
18240;DHT22;9244;50.828;4.718;2022-07-01T00:36:08;12.10;99.90
18240;DHT22;9244;50.828;4.718;2022-07-01T00:38:33;12.10;99.90
18240;DHT22;9244;50.828;4.718;2022-07-01T00:40:59;12.10;99.90
18240;DHT22;9244;50.828;4.718;2022-07-01T00:43:25;12.10;99.90
18240;DHT22;9244;50.828;4.718;2022-07-01T00:45:52;12.10;99.90
18240;DHT22;9244;50.828;4.718;2022-07-01T00:48:19;12.10;99.90
18240;DHT22;9244;50.828;4.718;2022-07-01T00:50:45;12.00;99.90
18240;DHT22;9244;50.828;4.718;2022-07-01T00:53:12;12.00;99.90
18240;DHT22;9244;50.828;4.718;2022-07-01T00:55:37;12.00;99.90
18240;DHT22;9244;50.828;4.718;2022-07-01T00:58:03;12.00;99.90
18240;DHT22;9244;50.828;4.718;2022-07-01T01:00:29;12.00;99.90
18240;DHT22;9244;50.828;4.718;2022-07-01T01:02:55;11.90;99.90
18240;DHT22;9244;50.828;4.718;2022-07-01T01:05:21;11.90;99.90
18240;DHT22;9244;50.828;4.718;2022-07-01T01:07:50;12.00;99.90
18240;DHT22;9244;50.828;4.718;2022-07-01T01:10:17;12.00;99.90
18240;DHT22;9244;50.828;4.718;2022-07-01T01:12:43;12.00;99.90
18240;DHT22;9244;50.828;4.718;2022-07-01T01:15:09;12.00;99.90
18240;DHT22;9244;50.828;4.718;2022-07-01T01:17:35;12.00;99.90
18240;DHT22;9244;50.828;4.718;2022-07-01T01:20:03;11.90;99.90
18240;DHT22;9244;50.828;4.718;2022-07-01T01:22:29;12.00;99.90
18240;DHT22;9244;50.828;4.718;2022-07-01T01:24:54;12.00;99.90
18240;DHT22;9244;50.828;4.718;2022-07-01T01:27:23;12.00;99.90
18240;DHT22;9244;50.828;4.718;2022-07-01T01:29:48;12.00;99.90
18240;DHT22;9244;50.828;4.718;2022-07-01T01:32:14;12.00;99.90
18240;DHT22;9244;50.828;4.718;2022-07-01T01:34:40;12.00;99.90
18240;DHT22;9244;50.828;4.718;2022-07-01T01:37:07;12.00;99.90
18240;DHT22;9244;50.828;4.718;2022-07-01T01:39:33;12.10;99.90
18240;DHT22;9244;50.828;4.718;2022-07-01T01:41:59;12.10;99.90
18240;DHT22;9244;50.828;4.718;2022-07-01T01:44:25;12.10;99.90
18240;DHT22;9244;50.828;4.718;2022-07-01T01:46:51;12.10;99.90
18240;DHT22;9244;50.828;4.718;2022-07-01T01:49:17;12.10;99.90
18240;DHT22;9244;50.828;4.718;2022-07-01T01:51:43;12.10;99.90
18240;DHT22;9244;50.828;4.718;2022-07-01T01:54:08;12.00;99.90
18240;DHT22;9244;50.828;4.718;2022-07-01T01:56:34;12.10;99.90
18240;DHT22;9244;50.828;4.718;2022-07-01T01:59:00;12.10;99.90
18240;DHT22;9244;50.828;4.718;2022-07-01T02:01:26;12.10;99.90
18240;DHT22;9244;50.828;4.718;2022-07-01T02:03:52;12.10;99.90
18240;DHT22;9244;50.828;4.718;2022-07-01T02:06:20;12.10;99.90
18240;DHT22;9244;50.828;4.718;2022-07-01T02:08:46;12.10;99.90
18240;DHT22;9244;50.828;4.718;2022-07-01T02:11:12;12.10;99.90
18240;DHT22;9244;50.828;4.718;2022-07-01T02:13:38;12.10;99.90
18240;DHT22;9244;50.828;4.718;2022-07-01T02:16:04;12.10;99.90
18240;DHT22;9244;50.828;4.718;2022-07-01T02:18:30;12.10;99.90
18240;DHT22;9244;50.828;4.718;2022-07-01T02:20:58;12.10;99.90
18240;DHT22;9244;50.828;4.718;2022-07-01T02:23:24;12.10;99.90
18240;DHT22;9244;50.828;4.718;2022-07-01T02:25:50;12.00;99.90
18240;DHT22;9244;50.828;4.718;2022-07-01T02:28:15;12.00;99.90
18240;DHT22;9244;50.828;4.718;2022-07-01T02:30:41;12.00;99.90
18240;DHT22;9244;50.828;4.718;2022-07-01T02:33:08;12.10;99.90
18240;DHT22;9244;50.828;4.718;2022-07-01T02:35:38;12.10;99.90
18240;DHT22;9244;50.828;4.718;2022-07-01T02:38:05;12.10;99.90
18240;DHT22;9244;50.828;4.718;2022-07-01T02:40:31;12.10;99.90
18240;DHT22;9244;50.828;4.718;2022-07-01T02:42:58;12.10;99.90
18240;DHT22;9244;50.828;4.718;2022-07-01T02:45:24;12.10;99.90
18240;DHT22;9244;50.828;4.718;2022-07-01T02:47:52;12.10;99.90
18240;DHT22;9244;50.828;4.718;2022-07-01T02:50:19;12.10;99.90
18240;DHT22;9244;50.828;4.718;2022-07-01T02:52:45;12.10;99.90
18240;DHT22;9244;50.828;4.718;2022-07-01T02:55:12;12.10;99.90
18240;DHT22;9244;50.828;4.718;2022-07-01T02:57:39;12.10;99.90
18240;DHT22;9244;50.828;4.718;2022-07-01T03:00:07;12.10;99.90
18240;DHT22;9244;50.828;4.718;2022-07-01T03:02:33;12.10;99.90
18240;DHT22;9244;50.828;4.718;2022-07-01T03:04:59;12.10;99.90
18240;DHT22;9244;50.828;4.718;2022-07-01T03:07:25;12.10;99.90
18240;DHT22;9244;50.828;4.718;2022-07-01T03:09:51;12.10;99.90
18240;DHT22;9244;50.828;4.718;2022-07-01T03:12:17;12.10;99.90
18240;DHT22;9244;50.828;4.718;2022-07-01T03:15:02;12.10;99.90
18240;DHT22;9244;50.828;4.718;2022-07-01T03:17:30;12.10;99.90
18240;DHT22;9244;50.828;4.718;2022-07-01T03:19:56;12.20;99.90
18240;DHT22;9244;50.828;4.718;2022-07-01T03:22:24;12.20;99.90
18240;DHT22;9244;50.828;4.718;2022-07-01T03:24:51;12.10;99.90
18240;DHT22;9244;50.828;4.718;2022-07-01T03:27:18;12.10;99.90
18240;DHT22;9244;50.828;4.718;2022-07-01T03:29:44;12.20;99.90
18240;DHT22;9244;50.828;4.718;2022-07-01T03:32:10;12.20;99.90
18240;DHT22;9244;50.828;4.718;2022-07-01T03:34:41;12.10;99.90
18240;DHT22;9244;50.828;4.718;2022-07-01T03:37:08;12.20;99.90
18240;DHT22;9244;50.828;4.718;2022-07-01T03:39:35;12.20;99.90
18240;DHT22;9244;50.828;4.718;2022-07-01T03:42:01;12.20;99.90
18240;DHT22;9244;50.828;4.718;2022-07-01T03:44:27;12.20;99.90
18240;DHT22;9244;50.828;4.718;2022-07-01T03:46:53;12.20;99.90
18240;DHT22;9244;50.828;4.718;2022-07-01T03:49:19;12.20;99.90
18240;DHT22;9244;50.828;4.718;2022-07-01T03:51:45;12.10;99.90
18240;DHT22;9244;50.828;4.718;2022-07-01T03:54:10;12.10;99.90
18240;DHT22;9244;50.828;4.718;2022-07-01T03:56:59;12.10;99.90
18240;DHT22;9244;50.828;4.718;2022-07-01T03:59:25;12.00;99.90
18240;DHT22;9244;50.828;4.718;2022-07-01T04:01:52;12.10;99.90
18240;DHT22;9244;50.828;4.718;2022-07-01T04:04:18;12.10;99.90
18240;DHT22;9244;50.828;4.718;2022-07-01T04:06:45;12.10;99.90
18240;DHT22;9244;50.828;4.718;2022-07-01T04:09:12;12.10;99.90
18240;DHT22;9244;50.828;4.718;2022-07-01T04:11:39;12.10;99.90
18240;DHT22;9244;50.828;4.718;2022-07-01T04:14:05;12.10;99.90
18240;DHT22;9244;50.828;4.718;2022-07-01T04:16:31;12.10;99.90
18240;DHT22;9244;50.828;4.718;2022-07-01T04:18:58;12.20;99.90
18240;DHT22;9244;50.828;4.718;2022-07-01T04:21:23;12.20;99.90
18240;DHT22;9244;50.828;4.718;2022-07-01T04:24:08;12.20;99.90
18240;DHT22;9244;50.828;4.718;2022-07-01T04:26:34;12.20;99.90
18240;DHT22;9244;50.828;4.718;2022-07-01T04:29:00;12.20;99.90
18240;DHT22;9244;50.828;4.718;2022-07-01T04:31:26;12.20;99.90
18240;DHT22;9244;50.828;4.718;2022-07-01T04:33:52;12.20;99.90
18240;DHT22;9244;50.828;4.718;2022-07-01T04:36:17;12.20;99.90
18240;DHT22;9244;50.828;4.718;2022-07-01T04:38:43;12.20;99.90
18240;DHT22;9244;50.828;4.718;2022-07-01T04:41:09;12.20;99.90
18240;DHT22;9244;50.828;4.718;2022-07-01T04:43:53;12.20;99.90
18240;DHT22;9244;50.828;4.718;2022-07-01T04:46:19;12.10;99.90
18240;DHT22;9244;50.828;4.718;2022-07-01T04:48:45;12.10;99.90
18240;DHT22;9244;50.828;4.718;2022-07-01T04:51:10;12.10;99.90
18240;DHT22;9244;50.828;4.718;2022-07-01T04:53:36;12.10;99.90
18240;DHT22;9244;50.828;4.718;2022-07-01T04:56:01;12.10;99.90
18240;DHT22;9244;50.828;4.718;2022-07-01T04:58:27;12.00;99.90
18240;DHT22;9244;50.828;4.718;2022-07-01T05:00:53;12.00;99.90
18240;DHT22;9244;50.828;4.718;2022-07-01T05:03:18;12.10;99.90
18240;DHT22;9244;50.828;4.718;2022-07-01T05:05:44;12.20;99.90
18240;DHT22;9244;50.828;4.718;2022-07-01T05:08:10;12.20;99.90
18240;DHT22;9244;50.828;4.718;2022-07-01T05:10:36;12.30;99.90
18240;DHT22;9244;50.828;4.718;2022-07-01T05:13:02;12.50;99.90
18240;DHT22;9244;50.828;4.718;2022-07-01T05:15:28;12.60;99.90
18240;DHT22;9244;50.828;4.718;2022-07-01T05:17:54;12.70;99.90
18240;DHT22;9244;50.828;4.718;2022-07-01T05:20:38;12.80;99.90
18240;DHT22;9244;50.828;4.718;2022-07-01T05:23:22;12.90;99.90
18240;DHT22;9244;50.828;4.718;2022-07-01T05:25:48;12.90;99.90
18240;DHT22;9244;50.828;4.718;2022-07-01T05:28:14;13.00;99.90
18240;DHT22;9244;50.828;4.718;2022-07-01T05:30:40;13.20;99.90
18240;DHT22;9244;50.828;4.718;2022-07-01T05:33:05;13.50;99.90
18240;DHT22;9244;50.828;4.718;2022-07-01T05:35:31;14.00;99.90
18240;DHT22;9244;50.828;4.718;2022-07-01T05:37:57;14.50;99.90
18240;DHT22;9244;50.828;4.718;2022-07-01T05:40:24;14.50;99.90
18240;DHT22;9244;50.828;4.718;2022-07-01T05:42:51;14.10;99.90
18240;DHT22;9244;50.828;4.718;2022-07-01T05:45:17;13.80;99.90
18240;DHT22;9244;50.828;4.718;2022-07-01T05:47:43;13.60;99.90
18240;DHT22;9244;50.828;4.718;2022-07-01T05:50:08;13.30;99.90
18240;DHT22;9244;50.828;4.718;2022-07-01T05:52:34;13.40;99.90
18240;DHT22;9244;50.828;4.718;2022-07-01T05:55:00;13.60;99.90
18240;DHT22;9244;50.828;4.718;2022-07-01T05:57:25;14.30;99.90
18240;DHT22;9244;50.828;4.718;2022-07-01T05:59:51;14.80;99.90
18240;DHT22;9244;50.828;4.718;2022-07-01T06:02:17;15.00;99.90
18240;DHT22;9244;50.828;4.718;2022-07-01T06:04:42;15.00;99.90
18240;DHT22;9244;50.828;4.718;2022-07-01T06:07:09;14.80;99.90
18240;DHT22;9244;50.828;4.718;2022-07-01T06:09:36;14.90;99.90
18240;DHT22;9244;50.828;4.718;2022-07-01T06:12:02;15.00;99.90
18240;DHT22;9244;50.828;4.718;2022-07-01T06:14:27;15.80;99.90
18240;DHT22;9244;50.828;4.718;2022-07-01T06:16:53;16.40;99.90
18240;DHT22;9244;50.828;4.718;2022-07-01T06:19:19;17.00;99.90
18240;DHT22;9244;50.828;4.718;2022-07-01T06:21:46;17.30;99.90
18240;DHT22;9244;50.828;4.718;2022-07-01T06:24:12;17.60;99.90
18240;DHT22;9244;50.828;4.718;2022-07-01T06:26:37;17.80;99.90
18240;DHT22;9244;50.828;4.718;2022-07-01T06:29:03;17.50;99.90
18240;DHT22;9244;50.828;4.718;2022-07-01T06:31:29;17.70;99.90
18240;DHT22;9244;50.828;4.718;2022-07-01T06:33:55;17.80;99.90
18240;DHT22;9244;50.828;4.718;2022-07-01T06:36:21;18.10;99.90
18240;DHT22;9244;50.828;4.718;2022-07-01T06:38:46;18.00;99.90
18240;DHT22;9244;50.828;4.718;2022-07-01T06:41:12;18.10;99.90
18240;DHT22;9244;50.828;4.718;2022-07-01T06:43:54;18.40;99.90
18240;DHT22;9244;50.828;4.718;2022-07-01T06:46:21;18.50;99.90
18240;DHT22;9244;50.828;4.718;2022-07-01T06:48:46;18.50;99.90
18240;DHT22;9244;50.828;4.718;2022-07-01T06:51:12;18.40;99.90
18240;DHT22;9244;50.828;4.718;2022-07-01T06:53:38;18.80;99.90
18240;DHT22;9244;50.828;4.718;2022-07-01T06:56:04;19.00;99.90
18240;DHT22;9244;50.828;4.718;2022-07-01T06:58:30;18.80;99.90
18240;DHT22;9244;50.828;4.718;2022-07-01T07:00:55;18.80;99.90
18240;DHT22;9244;50.828;4.718;2022-07-01T07:03:21;18.40;99.90
18240;DHT22;9244;50.828;4.718;2022-07-01T07:05:47;19.10;99.90
18240;DHT22;9244;50.828;4.718;2022-07-01T07:08:12;19.20;99.90
18240;DHT22;9244;50.828;4.718;2022-07-01T07:10:38;18.60;99.90
18240;DHT22;9244;50.828;4.718;2022-07-01T07:13:04;18.70;99.90
18240;DHT22;9244;50.828;4.718;2022-07-01T07:15:30;18.90;99.90
18240;DHT22;9244;50.828;4.718;2022-07-01T07:17:55;19.20;99.90
18240;DHT22;9244;50.828;4.718;2022-07-01T07:20:26;19.20;99.90
18240;DHT22;9244;50.828;4.718;2022-07-01T07:22:52;19.60;99.90
18240;DHT22;9244;50.828;4.718;2022-07-01T07:25:18;20.00;99.90
18240;DHT22;9244;50.828;4.718;2022-07-01T07:27:44;19.40;99.90
18240;DHT22;9244;50.828;4.718;2022-07-01T07:30:13;19.30;99.90
18240;DHT22;9244;50.828;4.718;2022-07-01T07:32:38;19.40;99.90
18240;DHT22;9244;50.828;4.718;2022-07-01T07:35:05;19.50;99.90
18240;DHT22;9244;50.828;4.718;2022-07-01T07:37:32;19.90;99.90
18240;DHT22;9244;50.828;4.718;2022-07-01T07:40:03;19.70;99.90
18240;DHT22;9244;50.828;4.718;2022-07-01T07:42:29;19.30;99.90
18240;DHT22;9244;50.828;4.718;2022-07-01T07:44:55;19.80;99.90
18240;DHT22;9244;50.828;4.718;2022-07-01T07:47:21;20.00;99.90
18240;DHT22;9244;50.828;4.718;2022-07-01T07:49:46;20.30;99.90
18240;DHT22;9244;50.828;4.718;2022-07-01T07:52:12;19.30;99.90
18240;DHT22;9244;50.828;4.718;2022-07-01T07:54:38;18.30;99.90
18240;DHT22;9244;50.828;4.718;2022-07-01T07:57:04;18.10;99.90
18240;DHT22;9244;50.828;4.718;2022-07-01T07:59:30;18.30;99.90
18240;DHT22;9244;50.828;4.718;2022-07-01T08:01:56;18.80;99.90
18240;DHT22;9244;50.828;4.718;2022-07-01T08:04:22;18.90;99.90
18240;DHT22;9244;50.828;4.718;2022-07-01T08:06:48;18.30;99.90
18240;DHT22;9244;50.828;4.718;2022-07-01T08:09:13;17.90;99.90
18240;DHT22;9244;50.828;4.718;2022-07-01T08:11:39;18.20;99.90
18240;DHT22;9244;50.828;4.718;2022-07-01T08:14:05;18.40;99.90
18240;DHT22;9244;50.828;4.718;2022-07-01T08:16:31;19.40;99.90
18240;DHT22;9244;50.828;4.718;2022-07-01T08:18:56;20.60;99.90
18240;DHT22;9244;50.828;4.718;2022-07-01T08:21:22;21.30;99.90
18240;DHT22;9244;50.828;4.718;2022-07-01T08:23:48;20.20;99.90
18240;DHT22;9244;50.828;4.718;2022-07-01T08:26:14;20.40;99.90
18240;DHT22;9244;50.828;4.718;2022-07-01T08:28:41;20.70;99.90
18240;DHT22;9244;50.828;4.718;2022-07-01T08:31:07;20.60;99.90
18240;DHT22;9244;50.828;4.718;2022-07-01T08:33:33;20.60;99.90
18240;DHT22;9244;50.828;4.718;2022-07-01T08:35:59;21.20;99.90
18240;DHT22;9244;50.828;4.718;2022-07-01T08:38:24;20.80;99.90
18240;DHT22;9244;50.828;4.718;2022-07-01T08:40:50;19.90;99.90
18240;DHT22;9244;50.828;4.718;2022-07-01T08:43:16;19.00;99.90
18240;DHT22;9244;50.828;4.718;2022-07-01T08:45:42;19.00;99.90
18240;DHT22;9244;50.828;4.718;2022-07-01T08:48:07;19.40;99.90
18240;DHT22;9244;50.828;4.718;2022-07-01T08:50:36;20.40;99.90
18240;DHT22;9244;50.828;4.718;2022-07-01T08:53:03;20.00;99.90
18240;DHT22;9244;50.828;4.718;2022-07-01T08:55:29;19.50;99.90
18240;DHT22;9244;50.828;4.718;2022-07-01T08:57:55;18.90;99.90
18240;DHT22;9244;50.828;4.718;2022-07-01T09:00:21;18.50;99.90
18240;DHT22;9244;50.828;4.718;2022-07-01T09:03:01;18.50;99.90
18240;DHT22;9244;50.828;4.718;2022-07-01T09:05:28;19.30;99.90
18240;DHT22;9244;50.828;4.718;2022-07-01T09:08:02;18.80;99.90
18240;DHT22;9244;50.828;4.718;2022-07-01T09:10:29;19.40;99.90
18240;DHT22;9244;50.828;4.718;2022-07-01T09:13:06;20.10;99.90
18240;DHT22;9244;50.828;4.718;2022-07-01T09:15:33;20.20;99.90
18240;DHT22;9244;50.828;4.718;2022-07-01T09:18:25;19.20;99.90
18240;DHT22;9244;50.828;4.718;2022-07-01T09:20:51;19.90;99.90
18240;DHT22;9244;50.828;4.718;2022-07-01T09:23:18;19.60;99.90
18240;DHT22;9244;50.828;4.718;2022-07-01T09:25:48;18.90;99.90
18240;DHT22;9244;50.828;4.718;2022-07-01T09:30:44;20.40;99.90
18240;DHT22;9244;50.828;4.718;2022-07-01T09:33:16;20.20;99.90
18240;DHT22;9244;50.828;4.718;2022-07-01T09:35:43;20.00;99.90
18240;DHT22;9244;50.828;4.718;2022-07-01T09:38:14;20.30;99.90
18240;DHT22;9244;50.828;4.718;2022-07-01T09:41:02;20.40;99.90
18240;DHT22;9244;50.828;4.718;2022-07-01T09:43:33;20.80;99.90
18240;DHT22;9244;50.828;4.718;2022-07-01T09:46:06;20.30;99.90
18240;DHT22;9244;50.828;4.718;2022-07-01T09:50:57;19.30;99.90
18240;DHT22;9244;50.828;4.718;2022-07-01T09:53:23;19.00;99.90
18240;DHT22;9244;50.828;4.718;2022-07-01T09:55:49;18.80;99.90
18240;DHT22;9244;50.828;4.718;2022-07-01T09:58:15;18.80;99.90
18240;DHT22;9244;50.828;4.718;2022-07-01T10:00:41;18.90;99.90
18240;DHT22;9244;50.828;4.718;2022-07-01T10:03:07;18.90;99.90
18240;DHT22;9244;50.828;4.718;2022-07-01T10:06:08;18.40;99.90
18240;DHT22;9244;50.828;4.718;2022-07-01T10:14:11;18.00;99.90
18240;DHT22;9244;50.828;4.718;2022-07-01T10:16:37;17.90;99.90
18240;DHT22;9244;50.828;4.718;2022-07-01T10:19:27;18.00;99.90
18240;DHT22;9244;50.828;4.718;2022-07-01T10:21:55;18.20;99.90
18240;DHT22;9244;50.828;4.718;2022-07-01T10:24:24;19.10;99.90
18240;DHT22;9244;50.828;4.718;2022-07-01T10:26:50;19.60;99.90
18240;DHT22;9244;50.828;4.718;2022-07-01T10:29:38;19.90;99.90
18240;DHT22;9244;50.828;4.718;2022-07-01T10:32:25;19.60;99.90
18240;DHT22;9244;50.828;4.718;2022-07-01T10:35:03;19.20;99.90
18240;DHT22;9244;50.828;4.718;2022-07-01T10:37:29;19.50;99.90
18240;DHT22;9244;50.828;4.718;2022-07-01T10:39:58;19.30;99.90
18240;DHT22;9244;50.828;4.718;2022-07-01T10:42:28;18.90;99.90
18240;DHT22;9244;50.828;4.718;2022-07-01T10:47:27;18.60;99.90
18240;DHT22;9244;50.828;4.718;2022-07-01T10:50:03;19.10;99.90
18240;DHT22;9244;50.828;4.718;2022-07-01T10:52:29;19.80;99.90
18240;DHT22;9244;50.828;4.718;2022-07-01T10:54:57;20.40;99.90
18240;DHT22;9244;50.828;4.718;2022-07-01T10:57:33;20.70;99.90
18240;DHT22;9244;50.828;4.718;2022-07-01T11:02:32;19.40;99.90
18240;DHT22;9244;50.828;4.718;2022-07-01T11:05:09;19.90;99.90
18240;DHT22;9244;50.828;4.718;2022-07-01T11:07:39;20.50;99.90
18240;DHT22;9244;50.828;4.718;2022-07-01T11:10:09;21.50;99.90
18240;DHT22;9244;50.828;4.718;2022-07-01T11:12:36;21.90;99.90
18240;DHT22;9244;50.828;4.718;2022-07-01T11:15:03;22.20;99.90
18240;DHT22;9244;50.828;4.718;2022-07-01T11:17:33;21.80;99.90
18240;DHT22;9244;50.828;4.718;2022-07-01T11:20:00;21.00;99.90
18240;DHT22;9244;50.828;4.718;2022-07-01T11:22:31;20.00;99.90
18240;DHT22;9244;50.828;4.718;2022-07-01T11:25:00;19.70;99.90
18240;DHT22;9244;50.828;4.718;2022-07-01T11:27:27;19.60;99.90
18240;DHT22;9244;50.828;4.718;2022-07-01T11:29:56;19.70;99.90
18240;DHT22;9244;50.828;4.718;2022-07-01T11:32:30;20.00;99.90
18240;DHT22;9244;50.828;4.718;2022-07-01T11:34:56;20.00;99.90
18240;DHT22;9244;50.828;4.718;2022-07-01T11:37:23;19.70;99.90
18240;DHT22;9244;50.828;4.718;2022-07-01T11:40:12;19.60;99.90
18240;DHT22;9244;50.828;4.718;2022-07-01T11:42:38;19.20;99.90
18240;DHT22;9244;50.828;4.718;2022-07-01T11:45:05;19.00;99.90
18240;DHT22;9244;50.828;4.718;2022-07-01T11:47:31;18.80;99.90
18240;DHT22;9244;50.828;4.718;2022-07-01T11:49:57;18.60;99.90
18240;DHT22;9244;50.828;4.718;2022-07-01T11:52:23;18.40;99.90
18240;DHT22;9244;50.828;4.718;2022-07-01T11:54:56;18.40;99.90
18240;DHT22;9244;50.828;4.718;2022-07-01T11:57:26;18.30;99.90
18240;DHT22;9244;50.828;4.718;2022-07-01T11:59:56;18.30;99.90
18240;DHT22;9244;50.828;4.718;2022-07-01T12:02:23;18.30;99.90
18240;DHT22;9244;50.828;4.718;2022-07-01T12:04:51;19.00;99.90
18240;DHT22;9244;50.828;4.718;2022-07-01T12:07:20;20.10;99.90
18240;DHT22;9244;50.828;4.718;2022-07-01T12:09:47;20.80;99.90
18240;DHT22;9244;50.828;4.718;2022-07-01T12:12:18;21.10;99.90
18240;DHT22;9244;50.828;4.718;2022-07-01T12:14:52;21.50;99.90
18240;DHT22;9244;50.828;4.718;2022-07-01T12:17:18;21.70;99.90
18240;DHT22;9244;50.828;4.718;2022-07-01T12:19:46;21.80;99.90
18240;DHT22;9244;50.828;4.718;2022-07-01T12:22:20;22.00;99.90
18240;DHT22;9244;50.828;4.718;2022-07-01T12:24:46;21.70;99.90
18240;DHT22;9244;50.828;4.718;2022-07-01T12:27:12;21.90;99.90
18240;DHT22;9244;50.828;4.718;2022-07-01T12:32:16;21.90;99.90
18240;DHT22;9244;50.828;4.718;2022-07-01T12:34:51;21.40;99.90
18240;DHT22;9244;50.828;4.718;2022-07-01T12:37:32;21.20;99.90
18240;DHT22;9244;50.828;4.718;2022-07-01T12:39:59;21.40;99.90
18240;DHT22;9244;50.828;4.718;2022-07-01T12:42:46;21.70;99.90
18240;DHT22;9244;50.828;4.718;2022-07-01T12:45:14;21.90;99.90
18240;DHT22;9244;50.828;4.718;2022-07-01T12:47:43;22.00;99.90
18240;DHT22;9244;50.828;4.718;2022-07-01T12:50:21;21.90;99.90
18240;DHT22;9244;50.828;4.718;2022-07-01T12:53:08;21.60;99.90
18240;DHT22;9244;50.828;4.718;2022-07-01T12:58:08;21.30;99.90
18240;DHT22;9244;50.828;4.718;2022-07-01T13:00:35;21.40;99.90
18240;DHT22;9244;50.828;4.718;2022-07-01T13:03:03;21.60;99.90
18240;DHT22;9244;50.828;4.718;2022-07-01T13:05:31;21.70;99.90
18240;DHT22;9244;50.828;4.718;2022-07-01T13:07:58;21.90;99.90
18240;DHT22;9244;50.828;4.718;2022-07-01T13:10:24;22.00;99.90
18240;DHT22;9244;50.828;4.718;2022-07-01T13:12:51;22.00;99.90
18240;DHT22;9244;50.828;4.718;2022-07-01T13:15:17;21.90;99.90
18240;DHT22;9244;50.828;4.718;2022-07-01T13:17:46;21.70;99.90
18240;DHT22;9244;50.828;4.718;2022-07-01T13:20:12;21.70;99.90
18240;DHT22;9244;50.828;4.718;2022-07-01T13:22:38;21.80;99.90
18240;DHT22;9244;50.828;4.718;2022-07-01T13:25:05;21.90;99.90
18240;DHT22;9244;50.828;4.718;2022-07-01T13:27:31;21.70;99.90
18240;DHT22;9244;50.828;4.718;2022-07-01T13:29:56;21.70;99.90
18240;DHT22;9244;50.828;4.718;2022-07-01T13:32:23;22.00;99.90
18240;DHT22;9244;50.828;4.718;2022-07-01T13:34:49;22.20;99.90
18240;DHT22;9244;50.828;4.718;2022-07-01T13:37:14;22.30;99.90
18240;DHT22;9244;50.828;4.718;2022-07-01T13:39:40;22.40;99.90
18240;DHT22;9244;50.828;4.718;2022-07-01T13:42:06;22.50;99.90
18240;DHT22;9244;50.828;4.718;2022-07-01T13:44:32;22.00;99.90
18240;DHT22;9244;50.828;4.718;2022-07-01T13:46:59;22.30;99.90
18240;DHT22;9244;50.828;4.718;2022-07-01T13:49:25;22.50;99.90
18240;DHT22;9244;50.828;4.718;2022-07-01T13:51:50;22.10;99.90
18240;DHT22;9244;50.828;4.718;2022-07-01T13:54:16;22.20;99.90
18240;DHT22;9244;50.828;4.718;2022-07-01T13:56:42;22.40;99.90
18240;DHT22;9244;50.828;4.718;2022-07-01T13:59:08;21.90;99.90
18240;DHT22;9244;50.828;4.718;2022-07-01T14:01:34;22.10;99.90
18240;DHT22;9244;50.828;4.718;2022-07-01T14:04:00;22.40;99.90
18240;DHT22;9244;50.828;4.718;2022-07-01T14:06:26;22.50;99.90
18240;DHT22;9244;50.828;4.718;2022-07-01T14:08:52;22.70;99.90
18240;DHT22;9244;50.828;4.718;2022-07-01T14:11:17;22.20;99.90
18240;DHT22;9244;50.828;4.718;2022-07-01T14:13:43;22.10;99.90
18240;DHT22;9244;50.828;4.718;2022-07-01T14:16:09;22.00;99.90
18240;DHT22;9244;50.828;4.718;2022-07-01T14:18:35;21.70;99.90
18240;DHT22;9244;50.828;4.718;2022-07-01T14:21:02;21.50;99.90
18240;DHT22;9244;50.828;4.718;2022-07-01T14:23:28;21.40;99.90
18240;DHT22;9244;50.828;4.718;2022-07-01T14:25:54;21.60;99.90
18240;DHT22;9244;50.828;4.718;2022-07-01T14:28:19;21.90;99.90
18240;DHT22;9244;50.828;4.718;2022-07-01T14:30:45;21.30;99.90
18240;DHT22;9244;50.828;4.718;2022-07-01T14:33:12;21.50;99.90
18240;DHT22;9244;50.828;4.718;2022-07-01T14:35:38;21.80;99.90
18240;DHT22;9244;50.828;4.718;2022-07-01T14:38:03;21.90;99.90
18240;DHT22;9244;50.828;4.718;2022-07-01T14:40:31;21.70;99.90
18240;DHT22;9244;50.828;4.718;2022-07-01T14:42:57;21.90;99.90
18240;DHT22;9244;50.828;4.718;2022-07-01T14:45:23;22.00;99.90
18240;DHT22;9244;50.828;4.718;2022-07-01T14:47:48;21.70;99.90
18240;DHT22;9244;50.828;4.718;2022-07-01T14:50:14;21.60;99.90
18240;DHT22;9244;50.828;4.718;2022-07-01T14:52:40;21.20;99.90
18240;DHT22;9244;50.828;4.718;2022-07-01T14:55:06;21.00;99.90
18240;DHT22;9244;50.828;4.718;2022-07-01T14:57:33;21.20;99.90
18240;DHT22;9244;50.828;4.718;2022-07-01T14:59:58;21.30;99.90
18240;DHT22;9244;50.828;4.718;2022-07-01T15:02:24;21.30;99.90
18240;DHT22;9244;50.828;4.718;2022-07-01T15:04:50;21.60;99.90
18240;DHT22;9244;50.828;4.718;2022-07-01T15:07:16;22.00;99.90
18240;DHT22;9244;50.828;4.718;2022-07-01T15:09:42;22.20;99.90
18240;DHT22;9244;50.828;4.718;2022-07-01T15:12:08;21.90;99.90
18240;DHT22;9244;50.828;4.718;2022-07-01T15:14:34;21.60;99.90
18240;DHT22;9244;50.828;4.718;2022-07-01T15:16:59;21.60;99.90
18240;DHT22;9244;50.828;4.718;2022-07-01T15:19:26;21.60;99.90
18240;DHT22;9244;50.828;4.718;2022-07-01T15:21:53;21.20;99.90
18240;DHT22;9244;50.828;4.718;2022-07-01T15:24:19;20.90;99.90
18240;DHT22;9244;50.828;4.718;2022-07-01T15:26:45;21.10;99.90
18240;DHT22;9244;50.828;4.718;2022-07-01T15:29:10;21.20;99.90
18240;DHT22;9244;50.828;4.718;2022-07-01T15:31:36;21.10;99.90
18240;DHT22;9244;50.828;4.718;2022-07-01T15:34:02;21.10;99.90
18240;DHT22;9244;50.828;4.718;2022-07-01T15:36:28;21.00;99.90
18240;DHT22;9244;50.828;4.718;2022-07-01T15:38:53;20.60;99.90
18240;DHT22;9244;50.828;4.718;2022-07-01T15:41:20;20.50;99.90
18240;DHT22;9244;50.828;4.718;2022-07-01T15:43:49;20.60;99.90
18240;DHT22;9244;50.828;4.718;2022-07-01T15:46:14;20.70;99.90
18240;DHT22;9244;50.828;4.718;2022-07-01T15:48:40;20.80;99.90
18240;DHT22;9244;50.828;4.718;2022-07-01T15:51:06;21.10;99.90
18240;DHT22;9244;50.828;4.718;2022-07-01T15:53:32;21.30;99.90
18240;DHT22;9244;50.828;4.718;2022-07-01T15:55:59;21.30;99.90
18240;DHT22;9244;50.828;4.718;2022-07-01T15:58:25;21.10;99.90
18240;DHT22;9244;50.828;4.718;2022-07-01T16:00:51;20.80;99.90
18240;DHT22;9244;50.828;4.718;2022-07-01T16:03:17;20.90;99.90
18240;DHT22;9244;50.828;4.718;2022-07-01T16:05:47;21.00;99.90
18240;DHT22;9244;50.828;4.718;2022-07-01T16:08:19;21.30;99.90